createdAt,value
2018-08-30T00:00:27.099Z,40.30
2018-08-30T00:01:27.099Z,41.30
2018-08-30T00:02:27.077Z,42.10
2018-08-30T00:03:27.066Z,40.60
2018-08-30T00:04:27.069Z,37.40
2018-08-30T00:05:27.044Z,39.70
2018-08-30T00:06:27.033Z,38.30
2018-08-30T00:07:27.025Z,37.50
2018-08-30T00:08:27.012Z,38.20
2018-08-30T00:09:27.014Z,39.40
2018-08-30T00:10:26.994Z,38.60
2018-08-30T00:11:26.979Z,35.40
2018-08-30T00:12:26.969Z,33.80
2018-08-30T00:13:26.961Z,32.90
2018-08-30T00:14:26.951Z,28.20
2018-08-30T00:15:26.948Z,26.60
2018-08-30T00:16:26.927Z,27.60
2018-08-30T00:17:26.912Z,27.20
2018-08-30T00:18:26.904Z,29.00
2018-08-30T00:19:26.910Z,29.00
2018-08-30T00:20:26.884Z,28.50
2018-08-30T00:21:26.872Z,29.20
2018-08-30T00:22:26.858Z,30.00
2018-08-30T00:23:26.851Z,29.20
2018-08-30T00:24:26.840Z,29.70
2018-08-30T00:25:26.841Z,29.00
2018-08-30T00:26:26.830Z,30.60
2018-08-30T00:27:26.819Z,31.00
2018-08-30T00:28:26.797Z,31.40
2018-08-30T00:29:26.785Z,29.80
2018-08-30T00:30:26.789Z,30.90
2018-08-30T00:31:26.778Z,31.20
2018-08-30T00:32:26.750Z,30.70
2018-08-30T00:33:26.742Z,30.80
2018-08-30T00:34:26.728Z,32.50
2018-08-30T00:35:26.722Z,31.20
2018-08-30T00:36:26.741Z,30.60
2018-08-30T00:37:26.696Z,32.00
2018-08-30T00:38:26.685Z,29.70
2018-08-30T00:39:26.675Z,31.50
2018-08-30T00:40:26.665Z,30.90
2018-08-30T00:41:26.668Z,28.80
2018-08-30T00:42:26.654Z,28.40
2018-08-30T00:43:26.629Z,27.60
2018-08-30T00:44:26.620Z,29.50
2018-08-30T00:45:26.606Z,27.70
2018-08-30T00:46:26.606Z,28.10
2018-08-30T00:47:26.583Z,31.00
2018-08-30T00:48:26.574Z,30.00
2018-08-30T00:49:26.572Z,31.20
2018-08-30T00:50:26.552Z,30.40
2018-08-30T00:51:26.536Z,28.30
2018-08-30T00:52:26.543Z,26.20
2018-08-30T00:53:26.521Z,26.30
2018-08-30T00:54:26.506Z,26.30
2018-08-30T00:55:26.494Z,24.70
2018-08-30T00:56:26.483Z,25.70
2018-08-30T00:57:26.474Z,23.50
2018-08-30T00:58:26.485Z,23.00
2018-08-30T00:59:26.451Z,22.60
2018-08-30T01:00:26.441Z,23.70
2018-08-30T01:01:26.430Z,24.20
2018-08-30T01:02:26.418Z,23.60
2018-08-30T01:03:26.409Z,25.90
2018-08-30T01:04:26.408Z,24.70
2018-08-30T01:05:26.387Z,25.90
2018-08-30T01:06:26.374Z,26.10
2018-08-30T01:07:26.362Z,25.80
2018-08-30T01:08:26.365Z,25.50
2018-08-30T01:09:26.343Z,27.00
2018-08-30T01:10:26.334Z,26.20
2018-08-30T01:11:26.338Z,27.20
2018-08-30T01:12:26.307Z,27.40
2018-08-30T01:13:26.296Z,28.00
2018-08-30T01:14:26.288Z,27.40
2018-08-30T01:15:26.275Z,27.60
2018-08-30T01:16:26.266Z,28.40
2018-08-30T01:17:26.267Z,26.80
2018-08-30T01:18:26.240Z,26.40
2018-08-30T01:19:26.232Z,27.40
2018-08-30T01:20:26.220Z,26.90
2018-08-30T01:21:26.223Z,25.70
2018-08-30T01:22:26.199Z,27.40
2018-08-30T01:23:26.186Z,28.00
2018-08-30T01:24:26.175Z,28.10
2018-08-30T01:25:26.166Z,28.10
2018-08-30T01:26:26.159Z,25.10
2018-08-30T01:27:26.157Z,26.70
2018-08-30T01:28:26.131Z,26.40
2018-08-30T01:29:26.123Z,26.60
2018-08-30T01:30:26.119Z,28.10
2018-08-30T01:31:26.122Z,28.40
2018-08-30T01:32:26.090Z,27.30
2018-08-30T01:33:26.074Z,26.20
2018-08-30T01:34:26.066Z,28.00
2018-08-30T01:35:26.051Z,27.90
2018-08-30T01:36:26.044Z,28.90
2018-08-30T01:37:26.044Z,29.60
2018-08-30T01:38:26.021Z,29.70
2018-08-30T01:39:26.022Z,27.80
2018-08-30T01:40:25.997Z,28.20
2018-08-30T01:41:25.985Z,26.60
2018-08-30T01:42:25.973Z,26.30
2018-08-30T01:43:25.988Z,26.70
2018-08-30T01:44:25.955Z,27.60
2018-08-30T01:45:25.944Z,26.80
2018-08-30T01:46:25.932Z,28.00
2018-08-30T01:47:25.921Z,27.50
2018-08-30T01:48:25.908Z,27.40
2018-08-30T01:49:25.909Z,25.60
2018-08-30T01:50:25.890Z,24.90
2018-08-30T01:51:25.874Z,25.80
2018-08-30T01:52:25.886Z,26.00
2018-08-30T01:53:25.856Z,25.30
2018-08-30T01:54:25.846Z,26.10
2018-08-30T01:55:25.832Z,24.50
2018-08-30T01:56:25.824Z,23.70
2018-08-30T01:57:25.811Z,24.20
2018-08-30T01:58:25.810Z,24.10
2018-08-30T01:59:25.788Z,24.70
2018-08-30T02:00:25.775Z,25.10
2018-08-30T02:01:25.767Z,23.10
2018-08-30T02:02:25.755Z,23.30
2018-08-30T02:03:25.754Z,24.10
2018-08-30T02:04:25.734Z,24.20
2018-08-30T02:05:25.731Z,23.80
2018-08-30T02:06:25.712Z,24.10
2018-08-30T02:07:25.716Z,23.90
2018-08-30T02:08:25.719Z,24.40
2018-08-30T02:09:25.679Z,24.50
2018-08-30T02:10:25.683Z,25.20
2018-08-30T02:11:25.657Z,25.30
2018-08-30T02:12:25.649Z,24.20
2018-08-30T02:13:25.639Z,24.30
2018-08-30T02:14:25.635Z,24.40
2018-08-30T02:15:25.631Z,24.70
2018-08-30T02:16:25.605Z,24.60
2018-08-30T02:17:25.591Z,26.60
2018-08-30T02:18:25.579Z,26.20
2018-08-30T02:19:25.569Z,27.00
2018-08-30T02:20:25.577Z,28.10
2018-08-30T02:21:25.546Z,26.90
2018-08-30T02:22:25.533Z,28.10
2018-08-30T02:23:25.526Z,28.40
2018-08-30T02:24:25.514Z,27.20
2018-08-30T02:25:25.525Z,28.20
2018-08-30T02:26:25.494Z,28.30
2018-08-30T02:27:25.482Z,30.70
2018-08-30T02:28:25.470Z,30.00
2018-08-30T02:29:25.458Z,30.80
2018-08-30T02:30:25.451Z,29.40
2018-08-30T02:31:25.458Z,30.20
2018-08-30T02:32:25.426Z,29.40
2018-08-30T02:33:25.414Z,29.40
2018-08-30T02:34:25.411Z,28.00
2018-08-30T02:35:25.392Z,26.90
2018-08-30T02:36:25.380Z,26.20
2018-08-30T02:37:25.385Z,25.70
2018-08-30T02:38:25.357Z,27.30
2018-08-30T02:39:25.346Z,25.80
2018-08-30T02:40:25.338Z,26.10
2018-08-30T02:41:25.339Z,25.90
2018-08-30T02:42:25.331Z,25.70
2018-08-30T02:43:25.312Z,24.30
2018-08-30T02:44:25.290Z,24.20
2018-08-30T02:45:25.279Z,25.10
2018-08-30T02:46:25.271Z,26.00
2018-08-30T02:47:25.256Z,26.00
2018-08-30T02:48:25.295Z,27.10
2018-08-30T02:49:25.235Z,25.90
2018-08-30T02:50:25.228Z,24.90
2018-08-30T02:51:25.215Z,24.40
2018-08-30T02:52:25.213Z,27.00
2018-08-30T02:53:25.208Z,25.20
2018-08-30T02:54:25.182Z,24.60
2018-08-30T02:55:25.172Z,24.50
2018-08-30T02:56:25.159Z,22.20
2018-08-30T02:57:25.161Z,22.20
2018-08-30T02:58:25.159Z,20.30
2018-08-30T02:59:25.126Z,21.30
2018-08-30T03:00:25.115Z,20.50
2018-08-30T03:01:25.105Z,20.20
2018-08-30T03:02:25.095Z,19.60
2018-08-30T03:03:25.080Z,18.70
2018-08-30T03:04:25.089Z,18.50
2018-08-30T03:05:25.062Z,19.60
2018-08-30T03:06:25.049Z,17.20
2018-08-30T03:07:25.055Z,16.20
2018-08-30T03:08:25.031Z,14.40
2018-08-30T03:09:25.020Z,12.00
2018-08-30T03:10:25.005Z,12.50
2018-08-30T03:11:24.994Z,11.40
2018-08-30T03:12:25.010Z,12.30
2018-08-30T03:13:24.971Z,11.40
2018-08-30T03:14:24.963Z,11.70
2018-08-30T03:15:24.949Z,12.10
2018-08-30T03:16:24.935Z,12.60
2018-08-30T03:17:24.927Z,12.60
2018-08-30T03:18:24.936Z,12.00
2018-08-30T03:19:24.906Z,11.40
2018-08-30T03:20:24.892Z,11.50
2018-08-30T03:21:24.881Z,12.40
2018-08-30T03:22:24.868Z,11.80
2018-08-30T03:23:24.859Z,12.10
2018-08-30T03:24:24.866Z,11.80
2018-08-30T03:25:24.838Z,11.90
2018-08-30T03:26:24.824Z,12.00
2018-08-30T03:27:24.836Z,12.50
2018-08-30T03:28:24.804Z,12.40
2018-08-30T03:29:24.790Z,13.70
2018-08-30T03:30:25.046Z,13.80
2018-08-30T03:31:24.783Z,13.90
2018-08-30T03:32:24.765Z,13.50
2018-08-30T03:33:24.764Z,14.60
2018-08-30T03:34:24.737Z,14.80
2018-08-30T03:35:24.727Z,14.20
2018-08-30T03:36:24.713Z,15.00
2018-08-30T03:37:24.720Z,15.50
2018-08-30T03:38:24.718Z,14.60
2018-08-30T03:39:24.687Z,15.40
2018-08-30T03:40:24.671Z,15.00
2018-08-30T03:41:24.659Z,16.10
2018-08-30T03:42:24.655Z,15.90
2018-08-30T03:43:24.636Z,15.60
2018-08-30T03:44:24.639Z,16.20
2018-08-30T03:45:24.617Z,16.40
2018-08-30T03:46:24.603Z,17.80
2018-08-30T03:47:24.594Z,17.60
2018-08-30T03:48:24.583Z,17.40
2018-08-30T03:49:24.590Z,18.30
2018-08-30T03:50:24.556Z,17.90
2018-08-30T03:51:24.549Z,18.20
2018-08-30T03:52:24.535Z,18.30
2018-08-30T03:53:24.526Z,18.30
2018-08-30T03:54:24.513Z,18.40
2018-08-30T03:55:24.517Z,20.50
2018-08-30T03:56:24.493Z,19.90
2018-08-30T03:57:24.482Z,19.80
2018-08-30T03:58:24.471Z,19.50
2018-08-30T03:59:24.459Z,20.60
2018-08-30T04:00:24.460Z,21.90
2018-08-30T04:01:24.446Z,21.40
2018-08-30T04:02:24.424Z,21.30
2018-08-30T04:03:24.416Z,22.00
2018-08-30T04:04:24.521Z,22.20
2018-08-30T04:05:24.400Z,21.90
2018-08-30T04:06:24.393Z,23.80
2018-08-30T04:07:24.371Z,24.70
2018-08-30T04:08:24.360Z,23.90
2018-08-30T04:09:24.380Z,24.20
2018-08-30T04:10:24.338Z,23.90
2018-08-30T04:11:24.341Z,25.10
2018-08-30T04:12:24.315Z,26.00
2018-08-30T04:13:24.322Z,26.50
2018-08-30T04:14:24.294Z,25.90
2018-08-30T04:15:24.291Z,27.40
2018-08-30T04:16:24.271Z,27.20
2018-08-30T04:17:24.258Z,27.40
2018-08-30T04:18:24.248Z,28.00
2018-08-30T04:19:24.238Z,28.10
2018-08-30T04:20:24.235Z,28.00
2018-08-30T04:21:24.215Z,29.70
2018-08-30T04:22:24.202Z,29.70
2018-08-30T04:23:24.275Z,29.50
2018-08-30T04:24:24.182Z,29.10
2018-08-30T04:25:24.170Z,30.90
2018-08-30T04:26:24.159Z,31.50
2018-08-30T04:27:24.148Z,32.30
2018-08-30T04:28:24.150Z,33.00
2018-08-30T04:29:24.128Z,32.30
2018-08-30T04:30:24.116Z,32.10
2018-08-30T04:31:24.107Z,32.30
2018-08-30T04:32:24.110Z,32.80
2018-08-30T04:33:24.084Z,34.20
2018-08-30T04:34:24.070Z,33.70
2018-08-30T04:35:24.061Z,35.30
2018-08-30T04:36:24.050Z,36.00
2018-08-30T04:37:24.053Z,35.50
2018-08-30T04:38:24.031Z,36.00
2018-08-30T04:39:24.033Z,35.70
2018-08-30T04:40:24.003Z,36.50
2018-08-30T04:41:23.995Z,36.80
2018-08-30T04:42:24.052Z,35.80
2018-08-30T04:43:23.971Z,36.60
2018-08-30T04:44:23.962Z,36.60
2018-08-30T04:45:23.987Z,37.00
2018-08-30T04:46:23.938Z,37.10
2018-08-30T04:47:23.928Z,38.20
2018-08-30T04:48:23.921Z,38.70
2018-08-30T04:49:23.904Z,38.80
2018-08-30T04:50:23.924Z,38.30
2018-08-30T04:51:23.899Z,37.90
2018-08-30T04:52:23.873Z,37.20
2018-08-30T04:53:23.863Z,38.10
2018-08-30T04:54:23.851Z,38.70
2018-08-30T04:55:23.838Z,39.60
2018-08-30T04:56:23.848Z,38.80
2018-08-30T04:57:23.817Z,38.50
2018-08-30T04:58:23.808Z,38.00
2018-08-30T04:59:23.796Z,37.60
2018-08-30T05:00:23.783Z,38.40
2018-08-30T05:01:23.771Z,38.50
2018-08-30T05:02:23.794Z,38.30
2018-08-30T05:03:23.750Z,39.30
2018-08-30T05:04:23.736Z,38.20
2018-08-30T05:05:23.730Z,39.20
2018-08-30T05:06:23.717Z,39.80
2018-08-30T05:07:23.708Z,40.80
2018-08-30T05:08:23.710Z,39.20
2018-08-30T05:09:23.683Z,39.00
2018-08-30T05:10:23.675Z,39.20
2018-08-30T05:11:23.660Z,39.90
2018-08-30T05:12:23.651Z,40.60
2018-08-30T05:13:23.679Z,39.20
2018-08-30T05:14:23.628Z,39.00
2018-08-30T05:15:23.617Z,38.30
2018-08-30T05:16:23.672Z,39.20
2018-08-30T05:17:23.593Z,39.60
2018-08-30T05:18:23.583Z,38.10
2018-08-30T05:19:23.612Z,38.50
2018-08-30T05:20:23.560Z,37.90
2018-08-30T05:21:23.551Z,38.50
2018-08-30T05:22:23.543Z,38.00
2018-08-30T05:23:23.529Z,38.60
2018-08-30T05:24:23.593Z,39.10
2018-08-30T05:25:23.534Z,37.90
2018-08-30T05:26:23.495Z,38.60
2018-08-30T05:27:23.487Z,38.70
2018-08-30T05:28:23.472Z,36.60
2018-08-30T05:29:23.462Z,36.90
2018-08-30T05:30:23.473Z,36.20
2018-08-30T05:31:23.440Z,38.40
2018-08-30T05:32:23.431Z,38.80
2018-08-30T05:33:23.416Z,38.60
2018-08-30T05:34:23.407Z,37.20
2018-08-30T05:35:23.397Z,37.70
2018-08-30T05:36:23.409Z,37.90
2018-08-30T05:37:23.374Z,38.30
2018-08-30T05:38:23.366Z,37.60
2018-08-30T05:39:23.352Z,35.90
2018-08-30T05:40:23.340Z,38.70
2018-08-30T05:41:23.326Z,36.70
2018-08-30T05:42:23.332Z,35.70
2018-08-30T05:43:23.306Z,35.20
2018-08-30T05:44:23.294Z,35.70
2018-08-30T05:45:23.285Z,37.50
2018-08-30T05:46:23.286Z,35.00
2018-08-30T05:47:23.263Z,35.90
2018-08-30T05:48:23.269Z,35.60
2018-08-30T05:49:23.240Z,36.90
2018-08-30T05:50:23.227Z,38.20
2018-08-30T05:51:23.216Z,36.70
2018-08-30T05:52:23.207Z,36.80
2018-08-30T05:53:23.196Z,37.10
2018-08-30T05:54:23.200Z,38.00
2018-08-30T05:55:23.172Z,38.40
2018-08-30T05:56:23.160Z,37.20
2018-08-30T05:57:23.150Z,39.00
2018-08-30T05:58:23.139Z,37.30
2018-08-30T05:59:23.153Z,38.10
2018-08-30T06:00:23.115Z,36.70
2018-08-30T06:01:23.104Z,37.40
2018-08-30T06:02:23.096Z,37.50
2018-08-30T06:03:23.082Z,40.10
2018-08-30T06:04:23.094Z,37.80
2018-08-30T06:05:23.075Z,38.20
2018-08-30T06:06:23.047Z,40.20
2018-08-30T06:07:23.042Z,39.50
2018-08-30T06:08:23.179Z,38.30
2018-08-30T06:09:23.017Z,39.10
2018-08-30T06:10:23.032Z,37.60
2018-08-30T06:11:22.994Z,38.30
2018-08-30T06:12:22.984Z,39.20
2018-08-30T06:13:22.974Z,37.80
2018-08-30T06:14:22.962Z,37.00
2018-08-30T06:15:22.952Z,37.90
2018-08-30T06:16:22.959Z,36.60
2018-08-30T06:17:22.928Z,37.50
2018-08-30T06:18:22.915Z,39.00
2018-08-30T06:19:22.907Z,37.80
2018-08-30T06:20:22.897Z,38.00
2018-08-30T06:21:22.882Z,37.50
2018-08-30T06:22:22.885Z,35.90
2018-08-30T06:23:22.866Z,36.70
2018-08-30T06:24:22.849Z,35.90
2018-08-30T06:25:22.837Z,36.60
2018-08-30T06:26:22.826Z,36.90
2018-08-30T06:27:22.840Z,35.90
2018-08-30T06:28:22.806Z,36.80
2018-08-30T06:29:22.856Z,36.10
2018-08-30T06:30:22.786Z,34.20
2018-08-30T06:31:22.770Z,36.50
2018-08-30T06:32:22.763Z,34.20
2018-08-30T06:33:22.782Z,34.20
2018-08-30T06:34:22.737Z,35.50
2018-08-30T06:35:22.726Z,34.20
2018-08-30T06:36:22.717Z,34.30
2018-08-30T06:37:22.705Z,32.80
2018-08-30T06:38:22.699Z,33.30
2018-08-30T06:39:22.695Z,35.20
2018-08-30T06:40:22.670Z,31.40
2018-08-30T06:41:22.680Z,34.10
2018-08-30T06:42:22.648Z,35.40
2018-08-30T06:43:22.638Z,33.60
2018-08-30T06:44:22.626Z,33.80
2018-08-30T06:45:22.675Z,31.10
2018-08-30T06:46:22.630Z,33.10
2018-08-30T06:47:22.594Z,33.30
2018-08-30T06:48:22.632Z,33.00
2018-08-30T06:49:22.571Z,32.70
2018-08-30T06:50:22.564Z,31.40
2018-08-30T06:51:22.552Z,31.90
2018-08-30T06:52:22.553Z,32.20
2018-08-30T06:53:22.528Z,32.50
2018-08-30T06:54:22.517Z,30.80
2018-08-30T06:55:22.518Z,31.40
2018-08-30T06:56:22.547Z,30.90
2018-08-30T06:57:22.525Z,31.00
2018-08-30T06:58:22.525Z,30.40
2018-08-30T06:59:22.464Z,30.50
2018-08-30T07:00:22.453Z,29.30
2018-08-30T07:01:22.439Z,30.30
2018-08-30T07:02:22.431Z,29.50
2018-08-30T07:03:22.433Z,27.50
2018-08-30T07:04:22.438Z,28.80
2018-08-30T07:05:22.396Z,28.00
2018-08-30T07:06:22.400Z,29.20
2018-08-30T07:07:22.376Z,29.70
2018-08-30T07:08:22.371Z,29.90
2018-08-30T07:09:22.353Z,27.80
2018-08-30T07:10:22.344Z,27.40
2018-08-30T07:11:22.349Z,28.00
2018-08-30T07:12:22.323Z,28.90
2018-08-30T07:13:22.311Z,28.00
2018-08-30T07:14:22.303Z,27.40
2018-08-30T07:15:22.293Z,29.10
2018-08-30T07:16:22.297Z,27.40
2018-08-30T07:17:22.267Z,27.00
2018-08-30T07:18:22.260Z,28.00
2018-08-30T07:19:22.247Z,27.90
2018-08-30T07:20:22.237Z,27.70
2018-08-30T07:21:22.229Z,27.80
2018-08-30T07:22:22.228Z,28.90
2018-08-30T07:23:22.206Z,27.70
2018-08-30T07:24:22.311Z,29.30
2018-08-30T07:25:22.185Z,29.50
2018-08-30T07:26:22.170Z,28.30
2018-08-30T07:27:22.182Z,29.10
2018-08-30T07:28:22.190Z,28.30
2018-08-30T07:29:22.141Z,29.80
2018-08-30T07:30:22.131Z,29.60
2018-08-30T07:31:22.116Z,29.00
2018-08-30T07:32:22.108Z,30.20
2018-08-30T07:33:22.115Z,27.80
2018-08-30T07:34:22.268Z,29.90
2018-08-30T07:35:22.075Z,29.60
2018-08-30T07:36:22.068Z,30.00
2018-08-30T07:37:22.050Z,31.60
2018-08-30T07:38:22.041Z,31.60
2018-08-30T07:39:22.043Z,30.40
2018-08-30T07:40:22.018Z,30.40
2018-08-30T07:41:22.031Z,31.40
2018-08-30T07:42:21.996Z,30.40
2018-08-30T07:43:21.988Z,31.70
2018-08-30T07:44:22.074Z,32.40
2018-08-30T07:45:21.963Z,31.80
2018-08-30T07:46:21.955Z,31.60
2018-08-30T07:47:22.107Z,31.10
2018-08-30T07:48:21.928Z,30.70
2018-08-30T07:49:21.940Z,29.60
2018-08-30T07:50:21.922Z,29.90
2018-08-30T07:51:21.894Z,29.40
2018-08-30T07:52:21.886Z,29.80
2018-08-30T07:53:21.874Z,29.20
2018-08-30T07:54:21.867Z,29.60
2018-08-30T07:55:21.869Z,29.00
2018-08-30T07:56:21.840Z,28.70
2018-08-30T07:57:21.888Z,29.90
2018-08-30T07:58:21.820Z,28.60
2018-08-30T07:59:21.810Z,27.70
2018-08-30T08:00:21.800Z,25.80
2018-08-30T08:01:21.790Z,24.80
2018-08-30T08:02:21.789Z,26.50
2018-08-30T08:03:21.767Z,24.80
2018-08-30T08:04:21.754Z,26.20
2018-08-30T08:05:21.746Z,25.10
2018-08-30T08:06:21.749Z,24.40
2018-08-30T08:07:21.803Z,24.30
2018-08-30T08:08:21.713Z,24.80
2018-08-30T08:09:21.700Z,24.00
2018-08-30T08:10:21.706Z,23.70
2018-08-30T08:11:21.682Z,23.50
2018-08-30T08:12:21.668Z,22.90
2018-08-30T08:13:21.660Z,25.40
2018-08-30T08:14:21.673Z,22.10
2018-08-30T08:15:21.639Z,21.70
2018-08-30T08:16:21.627Z,23.00
2018-08-30T08:17:21.616Z,22.00
2018-08-30T08:18:21.605Z,21.70
2018-08-30T08:19:21.593Z,21.90
2018-08-30T08:20:21.600Z,21.40
2018-08-30T08:21:21.573Z,21.80
2018-08-30T08:22:21.563Z,22.50
2018-08-30T08:23:21.554Z,22.00
2018-08-30T08:24:21.544Z,20.40
2018-08-30T08:25:21.617Z,22.80
2018-08-30T08:26:21.521Z,22.50
2018-08-30T08:27:21.514Z,22.00
2018-08-30T08:28:21.497Z,22.10
2018-08-30T08:29:21.505Z,20.90
2018-08-30T08:30:21.478Z,21.60
2018-08-30T08:31:21.522Z,21.60
2018-08-30T08:32:21.454Z,19.30
2018-08-30T08:33:21.442Z,20.50
2018-08-30T08:34:21.435Z,20.10
2018-08-30T08:35:21.423Z,21.00
2018-08-30T08:36:21.409Z,19.50
2018-08-30T08:37:21.411Z,19.60
2018-08-30T08:38:21.388Z,19.10
2018-08-30T08:39:21.376Z,19.80
2018-08-30T08:40:21.365Z,17.90
2018-08-30T08:41:21.392Z,17.40
2018-08-30T08:42:21.340Z,21.10
2018-08-30T08:43:21.334Z,19.90
2018-08-30T08:44:21.319Z,20.10
2018-08-30T08:45:21.306Z,20.90
2018-08-30T08:46:21.297Z,19.90
2018-08-30T08:47:21.299Z,19.70
2018-08-30T08:48:21.272Z,18.00
2018-08-30T08:49:21.261Z,19.80
2018-08-30T08:50:21.265Z,19.90
2018-08-30T08:51:21.239Z,18.80
2018-08-30T08:52:21.229Z,20.40
2018-08-30T08:53:21.219Z,17.90
2018-08-30T08:54:21.205Z,17.40
2018-08-30T08:55:21.219Z,18.70
2018-08-30T08:56:21.187Z,17.80
2018-08-30T08:57:21.173Z,18.90
2018-08-30T08:58:21.162Z,18.70
2018-08-30T08:59:21.219Z,17.80
2018-08-30T09:00:21.141Z,17.00
2018-08-30T09:01:21.177Z,17.40
2018-08-30T09:02:21.119Z,18.00
2018-08-30T09:03:21.109Z,17.10
2018-08-30T09:04:21.096Z,17.20
2018-08-30T09:05:21.085Z,16.00
2018-08-30T09:06:21.096Z,14.80
2018-08-30T09:07:21.094Z,15.70
2018-08-30T09:08:21.060Z,16.20
2018-08-30T09:09:21.048Z,14.90
2018-08-30T09:10:21.035Z,15.50
2018-08-30T09:11:21.021Z,14.40
2018-08-30T09:12:21.045Z,14.70
2018-08-30T09:13:20.998Z,16.00
2018-08-30T09:14:21.007Z,15.30
2018-08-30T09:15:20.977Z,14.80
2018-08-30T09:16:20.965Z,14.90
2018-08-30T09:17:20.961Z,14.40
2018-08-30T09:18:20.993Z,13.80
2018-08-30T09:19:20.932Z,14.80
2018-08-30T09:20:20.923Z,13.60
2018-08-30T09:21:20.927Z,13.00
2018-08-30T09:22:20.922Z,13.70
2018-08-30T09:23:20.889Z,12.60
2018-08-30T09:24:20.877Z,11.80
2018-08-30T09:25:20.871Z,12.50
2018-08-30T09:26:20.859Z,12.20
2018-08-30T09:27:20.844Z,12.20
2018-08-30T09:28:20.855Z,11.30
2018-08-30T09:29:20.878Z,11.00
2018-08-30T09:30:20.827Z,11.00
2018-08-30T09:31:20.805Z,11.70
2018-08-30T09:32:20.792Z,11.70
2018-08-30T09:33:20.800Z,12.00
2018-08-30T09:34:20.770Z,10.80
2018-08-30T09:35:20.762Z,11.00
2018-08-30T09:36:20.752Z,10.80
2018-08-30T09:37:20.742Z,9.60
2018-08-30T09:38:20.727Z,9.80
2018-08-30T09:39:20.740Z,10.50
2018-08-30T09:40:20.705Z,9.70
2018-08-30T09:41:20.699Z,10.30
2018-08-30T09:42:20.687Z,10.10
2018-08-30T09:43:20.677Z,10.50
2018-08-30T09:44:20.665Z,9.20
2018-08-30T09:45:20.677Z,9.40
2018-08-30T09:46:20.645Z,9.70
2018-08-30T09:47:20.636Z,9.60
2018-08-30T09:48:20.622Z,8.60
2018-08-30T09:49:20.662Z,8.80
2018-08-30T09:50:20.604Z,9.10
2018-08-30T09:51:20.608Z,8.70
2018-08-30T09:52:20.583Z,9.40
2018-08-30T09:53:20.570Z,8.30
2018-08-30T09:54:20.561Z,9.10
2018-08-30T09:55:20.567Z,9.30
2018-08-30T09:56:20.538Z,8.80
2018-08-30T09:57:20.794Z,8.30
2018-08-30T09:58:20.515Z,8.60
2018-08-30T09:59:20.507Z,7.60
2018-08-30T10:00:20.523Z,8.20
2018-08-30T10:01:20.486Z,8.20
2018-08-30T10:02:20.475Z,8.00
2018-08-30T10:03:20.463Z,8.50
2018-08-30T10:04:20.454Z,8.90
2018-08-30T10:05:20.440Z,9.00
2018-08-30T10:06:20.447Z,8.80
2018-08-30T10:07:20.421Z,8.90
2018-08-30T10:08:20.408Z,8.20
2018-08-30T10:09:20.400Z,7.80
2018-08-30T10:10:20.388Z,8.70
2018-08-30T10:11:20.389Z,7.90
2018-08-30T10:12:20.379Z,7.70
2018-08-30T10:13:20.357Z,7.70
2018-08-30T10:14:20.344Z,7.90
2018-08-30T10:15:20.335Z,7.70
2018-08-30T10:16:20.325Z,8.30
2018-08-30T10:17:20.325Z,7.90
2018-08-30T10:18:20.310Z,7.60
2018-08-30T10:19:20.295Z,7.80
2018-08-30T10:20:20.283Z,7.10
2018-08-30T10:21:20.297Z,7.20
2018-08-30T10:22:20.281Z,7.10
2018-08-30T10:23:20.247Z,6.70
2018-08-30T10:24:20.253Z,7.20
2018-08-30T10:25:20.274Z,6.40
2018-08-30T10:26:20.214Z,5.80
2018-08-30T10:27:20.203Z,6.10
2018-08-30T10:28:20.192Z,7.30
2018-08-30T10:29:20.187Z,7.60
2018-08-30T10:30:20.187Z,8.20
2018-08-30T10:31:20.195Z,8.20
2018-08-30T10:32:20.150Z,7.20
2018-08-30T10:33:20.139Z,7.80
2018-08-30T10:34:20.128Z,7.70
2018-08-30T10:35:20.140Z,7.50
2018-08-30T10:36:20.105Z,7.10
2018-08-30T10:37:20.095Z,6.30
2018-08-30T10:38:20.089Z,6.50
2018-08-30T10:39:20.076Z,6.40
2018-08-30T10:40:20.062Z,6.10
2018-08-30T10:41:20.077Z,6.40
2018-08-30T10:42:20.042Z,6.00
2018-08-30T10:43:20.029Z,5.80
2018-08-30T10:44:20.023Z,6.10
2018-08-30T10:45:20.011Z,6.50
2018-08-30T10:46:19.998Z,6.00
2018-08-30T10:47:20.006Z,6.60
2018-08-30T10:48:19.979Z,5.60
2018-08-30T10:49:20.023Z,6.20
2018-08-30T10:50:19.955Z,5.70
2018-08-30T10:51:19.947Z,6.00
2018-08-30T10:52:19.957Z,6.00
2018-08-30T10:53:19.935Z,5.30
2018-08-30T10:54:19.909Z,6.00
2018-08-30T10:55:19.903Z,6.40
2018-08-30T10:56:19.968Z,6.00
2018-08-30T10:57:19.903Z,5.50
2018-08-30T10:58:19.878Z,5.40
2018-08-30T10:59:19.864Z,5.30
2018-08-30T11:00:19.850Z,6.10
2018-08-30T11:01:19.835Z,5.20
2018-08-30T11:02:19.828Z,5.40
2018-08-30T11:03:19.832Z,5.00
2018-08-30T11:04:19.982Z,4.90
2018-08-30T11:05:19.793Z,5.60
2018-08-30T11:06:19.781Z,4.70
2018-08-30T11:07:19.774Z,5.40
2018-08-30T11:08:19.788Z,4.70
2018-08-30T11:09:19.783Z,4.70
2018-08-30T11:10:19.743Z,5.00
2018-08-30T11:11:19.732Z,4.10
2018-08-30T11:12:19.718Z,4.60
2018-08-30T11:13:19.740Z,4.40
2018-08-30T11:14:19.738Z,4.90
2018-08-30T11:15:19.691Z,4.20
2018-08-30T11:16:19.674Z,4.10
2018-08-30T11:17:19.667Z,4.40
2018-08-30T11:18:19.653Z,4.10
2018-08-30T11:19:19.661Z,4.30
2018-08-30T11:20:19.648Z,4.30
2018-08-30T11:21:19.622Z,3.90
2018-08-30T11:22:19.614Z,4.00
2018-08-30T11:23:19.603Z,4.40
2018-08-30T11:24:19.630Z,4.20
2018-08-30T11:25:19.579Z,4.00
2018-08-30T11:26:19.570Z,4.70
2018-08-30T11:27:19.557Z,3.90
2018-08-30T11:28:19.550Z,4.20
2018-08-30T11:29:19.538Z,4.00
2018-08-30T11:30:19.544Z,4.20
2018-08-30T11:31:19.514Z,3.70
2018-08-30T11:32:19.507Z,3.80
2018-08-30T11:33:19.496Z,3.20
2018-08-30T11:34:19.485Z,3.10
2018-08-30T11:35:19.475Z,3.70
2018-08-30T11:36:19.479Z,3.40
2018-08-30T11:37:19.451Z,3.30
2018-08-30T11:38:19.442Z,3.50
2018-08-30T11:39:19.432Z,3.00
2018-08-30T11:40:19.420Z,3.30
2018-08-30T11:41:19.559Z,2.90
2018-08-30T11:42:19.401Z,3.60
2018-08-30T11:43:19.448Z,3.20
2018-08-30T11:44:19.379Z,4.00
2018-08-30T11:45:19.368Z,3.80
2018-08-30T11:46:19.354Z,3.10
2018-08-30T11:47:19.365Z,3.70
2018-08-30T11:48:19.335Z,3.20
2018-08-30T11:49:19.325Z,2.70
2018-08-30T11:50:19.315Z,3.10
2018-08-30T11:51:19.303Z,3.60
2018-08-30T11:52:19.328Z,3.10
2018-08-30T11:53:19.294Z,3.00
2018-08-30T11:54:19.340Z,3.30
2018-08-30T11:55:19.259Z,3.00
2018-08-30T11:56:19.799Z,3.30
2018-08-30T11:57:19.239Z,3.50
2018-08-30T11:58:19.245Z,3.80
2018-08-30T11:59:19.229Z,3.80
2018-08-30T12:00:19.210Z,3.10
2018-08-30T12:01:19.196Z,3.50
2018-08-30T12:02:19.212Z,3.50
2018-08-30T12:03:19.173Z,3.50
2018-08-30T12:04:19.165Z,3.90
2018-08-30T12:05:19.154Z,3.60
2018-08-30T12:06:19.144Z,3.10
2018-08-30T12:07:19.132Z,4.20
2018-08-30T12:08:19.151Z,3.80
2018-08-30T12:09:19.109Z,3.60
2018-08-30T12:10:19.208Z,3.60
2018-08-30T12:11:19.263Z,4.00
2018-08-30T12:12:19.078Z,3.20
2018-08-30T12:13:19.065Z,3.40
2018-08-30T12:14:19.070Z,3.10
2018-08-30T12:15:19.045Z,2.90
2018-08-30T12:16:19.036Z,3.00
2018-08-30T12:17:19.025Z,3.10
2018-08-30T12:18:19.013Z,3.20
2018-08-30T12:19:19.019Z,3.20
2018-08-30T12:20:18.995Z,3.20
2018-08-30T12:21:18.979Z,2.80
2018-08-30T12:22:18.970Z,3.40
2018-08-30T12:23:18.959Z,2.90
2018-08-30T12:24:18.946Z,2.80
2018-08-30T12:25:18.947Z,2.60
2018-08-30T12:26:18.928Z,3.10
2018-08-30T12:27:18.914Z,2.90
2018-08-30T12:28:18.905Z,2.70
2018-08-30T12:29:18.912Z,2.70
2018-08-30T12:30:18.971Z,3.40
2018-08-30T12:31:18.980Z,2.90
2018-08-30T12:32:18.902Z,2.90
2018-08-30T12:33:18.851Z,2.90
2018-08-30T12:34:18.923Z,3.30
2018-08-30T12:35:18.948Z,2.30
2018-08-30T12:36:18.879Z,2.90
2018-08-30T12:37:18.867Z,2.50
2018-08-30T12:38:18.837Z,2.80
2018-08-30T12:39:18.813Z,3.00
2018-08-30T12:40:18.912Z,3.10
2018-08-30T12:41:18.810Z,2.80
2018-08-30T12:42:18.772Z,3.10
2018-08-30T12:43:18.881Z,2.60
2018-08-30T12:44:18.749Z,2.90
2018-08-30T12:45:18.725Z,3.00
2018-08-30T12:46:18.731Z,2.90
2018-08-30T12:47:18.715Z,2.90
2018-08-30T12:48:18.747Z,2.90
2018-08-30T12:49:18.683Z,2.90
2018-08-30T12:50:18.865Z,3.10
2018-08-30T12:51:18.850Z,3.00
2018-08-30T12:52:18.787Z,3.10
2018-08-30T12:53:18.797Z,2.90
2018-08-30T12:54:18.768Z,2.90
2018-08-30T12:55:18.617Z,3.20
2018-08-30T12:56:18.756Z,2.80
2018-08-30T12:57:18.679Z,2.80
2018-08-30T12:58:18.701Z,3.10
2018-08-30T12:59:18.717Z,2.90